createdAt,value
2023-10-16T00:02:19.544Z,10.27
2023-10-16T00:04:46.624Z,12.45
2023-10-16T00:07:14.805Z,6.32
2023-10-16T00:09:42.260Z,9.70
2023-10-16T00:12:09.602Z,6.07
2023-10-16T00:14:37.506Z,16.07
2023-10-16T00:17:05.219Z,3.95
2023-10-16T00:19:32.259Z,6.90
2023-10-16T00:21:59.293Z,8.52
2023-10-16T00:24:26.708Z,6.88
2023-10-16T00:26:53.968Z,12.30
2023-10-16T00:29:21.121Z,5.72
2023-10-16T00:31:48.420Z,7.07
2023-10-16T00:34:15.461Z,6.55
2023-10-16T00:36:42.553Z,9.05
2023-10-16T00:39:09.666Z,5.93
2023-10-16T00:41:36.707Z,7.97
2023-10-16T00:44:03.914Z,5.78
2023-10-16T00:46:33.014Z,8.57
2023-10-16T00:49:00.730Z,9.45
2023-10-16T00:51:39.402Z,4.87
2023-10-16T00:54:14.564Z,17.98
2023-10-16T00:56:41.781Z,14.25
2023-10-16T00:59:09.083Z,12.15
2023-10-16T01:01:36.992Z,7.55
2023-10-16T01:04:04.332Z,9.53
2023-10-16T01:06:31.421Z,4.82
2023-10-16T01:08:58.638Z,6.25
2023-10-16T01:11:25.693Z,8.10
2023-10-16T01:13:52.730Z,7.75
2023-10-16T01:16:20.536Z,15.13
2023-10-16T01:18:48.051Z,6.22
2023-10-16T01:21:15.297Z,5.47
2023-10-16T01:23:43.056Z,11.15
2023-10-16T01:26:10.132Z,8.90
2023-10-16T01:28:37.212Z,7.70
2023-10-16T01:31:04.423Z,7.97
2023-10-16T01:33:31.565Z,5.75
2023-10-16T01:35:58.710Z,3.92
2023-10-16T01:38:25.926Z,8.23
2023-10-16T01:40:54.468Z,11.37
2023-10-16T01:43:21.558Z,7.13
2023-10-16T01:45:48.699Z,8.52
2023-10-16T01:48:15.838Z,4.13
2023-10-16T01:50:42.922Z,12.27
2023-10-16T01:53:10.065Z,9.83
2023-10-16T01:55:37.120Z,5.60
2023-10-16T01:58:04.385Z,7.05
2023-10-16T02:00:32.682Z,7.65
2023-10-16T02:02:59.813Z,7.93
2023-10-16T02:05:26.924Z,11.83
2023-10-16T02:07:54.029Z,14.73
2023-10-16T02:10:21.081Z,5.72
2023-10-16T02:12:48.206Z,4.50
2023-10-16T02:15:15.368Z,10.60
2023-10-16T02:17:42.799Z,6.40
2023-10-16T02:20:10.143Z,6.38
2023-10-16T02:22:37.263Z,10.02
2023-10-16T02:25:04.561Z,5.22
2023-10-16T02:27:31.657Z,5.50
2023-10-16T02:29:58.769Z,11.73
2023-10-16T02:32:25.869Z,10.35
2023-10-16T02:34:53.031Z,7.15
2023-10-16T02:37:20.323Z,4.75
2023-10-16T02:39:47.423Z,9.60
2023-10-16T02:42:14.557Z,4.30
2023-10-16T02:44:42.243Z,8.48
2023-10-16T02:47:10.586Z,6.55
2023-10-16T02:49:37.680Z,6.63
2023-10-16T02:52:04.976Z,7.47
2023-10-16T02:54:32.071Z,8.80
2023-10-16T02:56:59.138Z,7.75
2023-10-16T02:59:27.312Z,9.95
2023-10-16T03:01:54.617Z,7.15
2023-10-16T03:04:21.726Z,17.30
2023-10-16T03:06:48.855Z,3.37
2023-10-16T03:09:15.900Z,7.10
2023-10-16T03:11:42.934Z,3.75
2023-10-16T03:14:10.008Z,7.47
2023-10-16T03:16:37.094Z,9.32
2023-10-16T03:19:04.144Z,3.03
2023-10-16T03:21:31.262Z,5.93
2023-10-16T03:23:58.399Z,12.35
2023-10-16T03:26:25.523Z,7.60
2023-10-16T03:28:57.529Z,4.60
2023-10-16T03:31:25.798Z,8.10
2023-10-16T03:33:53.166Z,6.55
2023-10-16T03:36:20.282Z,5.43
2023-10-16T03:38:47.324Z,6.78
2023-10-16T03:41:14.380Z,5.78
2023-10-16T03:43:41.469Z,8.03
2023-10-16T03:46:08.556Z,10.95
2023-10-16T03:48:35.635Z,10.50
2023-10-16T03:51:02.759Z,3.38
2023-10-16T03:53:29.794Z,3.78
2023-10-16T03:55:57.214Z,3.10
2023-10-16T03:58:24.502Z,11.00
2023-10-16T04:00:51.589Z,6.90
2023-10-16T04:03:22.755Z,7.93
2023-10-16T04:05:51.019Z,13.30
2023-10-16T04:08:19.994Z,7.27
2023-10-16T04:10:48.804Z,6.40
2023-10-16T04:13:17.370Z,9.13
2023-10-16T04:15:47.561Z,5.28
2023-10-16T04:18:15.456Z,4.22
2023-10-16T04:20:42.511Z,3.87
2023-10-16T04:23:09.555Z,10.82
2023-10-16T04:25:36.604Z,6.95
2023-10-16T04:28:03.799Z,6.10
2023-10-16T04:30:30.892Z,7.20
2023-10-16T04:32:58.056Z,8.70
2023-10-16T04:35:25.288Z,17.73
2023-10-16T04:37:52.752Z,27.00
2023-10-16T04:40:19.817Z,20.52
2023-10-16T04:42:46.951Z,21.65
2023-10-16T04:45:18.743Z,23.90
2023-10-16T04:47:50.925Z,12.73
2023-10-16T04:50:18.065Z,8.15
2023-10-16T04:52:45.124Z,13.02
2023-10-16T04:55:12.247Z,17.48
2023-10-16T04:57:39.336Z,6.97
2023-10-16T05:00:06.972Z,16.98
2023-10-16T05:02:34.122Z,9.60
2023-10-16T05:05:04.296Z,11.07
2023-10-16T05:07:31.351Z,7.75
2023-10-16T05:09:58.462Z,13.20
2023-10-16T05:12:25.592Z,14.70
2023-10-16T05:14:52.700Z,11.75
2023-10-16T05:17:19.814Z,12.45
2023-10-16T05:19:47.087Z,9.98
2023-10-16T05:22:14.522Z,6.43
2023-10-16T05:24:41.690Z,8.73
2023-10-16T05:27:08.794Z,13.93
2023-10-16T05:29:50.095Z,9.10
2023-10-16T05:32:19.325Z,6.63
2023-10-16T05:34:46.453Z,14.83
2023-10-16T05:37:13.533Z,5.82
2023-10-16T05:39:40.684Z,5.60
2023-10-16T05:42:07.758Z,9.55
2023-10-16T05:44:34.821Z,23.85
2023-10-16T05:47:01.928Z,50.70
2023-10-16T05:49:29.297Z,29.92
2023-10-16T05:51:56.369Z,21.17
2023-10-16T05:54:23.534Z,22.98
2023-10-16T05:56:50.627Z,26.48
2023-10-16T05:59:17.876Z,30.43
2023-10-16T06:01:45.079Z,12.80
2023-10-16T06:04:12.397Z,10.63
2023-10-16T06:06:39.601Z,12.80
2023-10-16T06:09:06.720Z,7.78
2023-10-16T06:11:34.094Z,13.53
2023-10-16T06:14:01.172Z,23.20
2023-10-16T06:16:28.330Z,9.00
2023-10-16T06:18:55.647Z,14.05
2023-10-16T06:21:22.830Z,8.82
2023-10-16T06:23:50.650Z,9.90
2023-10-16T06:26:19.376Z,17.10
2023-10-16T06:28:46.467Z,8.13
2023-10-16T06:31:13.665Z,7.88
2023-10-16T06:33:40.837Z,6.47
2023-10-16T06:36:08.028Z,9.70
2023-10-16T06:38:35.116Z,18.80
2023-10-16T06:41:02.167Z,11.60
2023-10-16T06:43:29.234Z,16.65
2023-10-16T06:45:56.500Z,9.73
2023-10-16T06:48:23.810Z,8.00
2023-10-16T06:50:50.910Z,12.23
2023-10-16T06:53:18.006Z,11.32
2023-10-16T06:55:45.085Z,5.43
2023-10-16T06:58:12.422Z,13.82
2023-10-16T07:00:39.611Z,7.50
2023-10-16T07:03:07.007Z,13.52
2023-10-16T07:05:34.121Z,16.05
2023-10-16T07:08:01.287Z,13.18
2023-10-16T07:10:28.360Z,12.23
2023-10-16T07:12:55.488Z,9.60
2023-10-16T07:15:22.903Z,7.55
2023-10-16T07:17:50.017Z,16.38
2023-10-16T07:20:17.149Z,24.80
2023-10-16T07:22:44.255Z,15.38
2023-10-16T07:25:11.481Z,16.03
2023-10-16T07:27:38.689Z,20.58
2023-10-16T07:30:06.591Z,39.58
2023-10-16T07:32:33.674Z,29.83
2023-10-16T07:35:00.742Z,35.33
2023-10-16T07:37:27.823Z,30.90
2023-10-16T07:39:54.930Z,33.42
2023-10-16T07:42:22.007Z,31.30
2023-10-16T07:44:49.397Z,29.00
2023-10-16T07:47:16.560Z,25.95
2023-10-16T07:49:43.623Z,27.47
2023-10-16T07:52:10.773Z,14.15
2023-10-16T07:54:37.975Z,21.52
2023-10-16T07:57:05.127Z,26.10
2023-10-16T07:59:32.457Z,39.42
2023-10-16T08:01:59.605Z,14.13
2023-10-16T08:04:27.143Z,18.60
2023-10-16T08:06:59.075Z,18.40
2023-10-16T08:09:26.401Z,16.00
2023-10-16T08:11:54.993Z,12.82
2023-10-16T08:14:22.209Z,13.50
2023-10-16T08:16:49.421Z,14.98
2023-10-16T08:19:16.729Z,18.33
2023-10-16T08:21:44.451Z,13.38
2023-10-16T08:24:13.372Z,11.95
2023-10-16T08:26:42.083Z,16.03
2023-10-16T08:29:09.348Z,14.27
2023-10-16T08:31:36.453Z,12.55
2023-10-16T08:34:03.718Z,15.55
2023-10-16T08:36:30.965Z,18.73
2023-10-16T08:38:58.093Z,21.37
2023-10-16T08:41:30.575Z,13.38
2023-10-16T08:44:01.388Z,20.05
2023-10-16T08:46:28.503Z,19.75
2023-10-16T08:48:55.854Z,21.98
2023-10-16T08:51:22.992Z,12.83
2023-10-16T08:53:50.279Z,12.80
2023-10-16T08:56:18.748Z,13.40
2023-10-16T08:58:47.066Z,12.63
2023-10-16T09:01:15.942Z,14.95
2023-10-16T09:04:03.910Z,12.10
2023-10-16T09:06:36.373Z,13.13
2023-10-16T09:09:03.946Z,12.73
2023-10-16T09:11:31.441Z,14.95
2023-10-16T09:13:59.686Z,12.75
2023-10-16T09:16:26.879Z,9.37
2023-10-16T09:18:54.896Z,14.23
2023-10-16T09:21:22.318Z,18.40
2023-10-16T09:23:49.786Z,17.83
2023-10-16T09:26:17.075Z,10.73
2023-10-16T09:28:44.534Z,12.50
2023-10-16T09:31:13.151Z,13.35
2023-10-16T09:33:41.163Z,15.75
2023-10-16T09:36:15.723Z,14.38
2023-10-16T09:38:43.736Z,13.40
2023-10-16T09:41:10.857Z,8.57
2023-10-16T09:43:38.686Z,17.98
2023-10-16T09:46:06.039Z,10.70
2023-10-16T09:48:33.573Z,10.43
2023-10-16T09:51:01.946Z,7.97
2023-10-16T09:53:29.048Z,12.07
2023-10-16T09:56:00.373Z,12.05
2023-10-16T09:58:28.309Z,12.30
2023-10-16T10:00:55.724Z,14.27
2023-10-16T10:03:23.184Z,7.20
2023-10-16T10:05:51.977Z,14.07
2023-10-16T10:08:38.752Z,7.13
2023-10-16T10:11:22.301Z,17.73
2023-10-16T10:13:58.318Z,9.80
2023-10-16T10:16:28.673Z,7.72
2023-10-16T10:18:55.885Z,16.20
2023-10-16T10:21:23.019Z,10.93
2023-10-16T10:23:50.159Z,18.80
2023-10-16T10:26:19.130Z,18.08
2023-10-16T10:28:46.703Z,12.77
2023-10-16T10:31:14.219Z,18.03
2023-10-16T10:33:43.972Z,11.88
2023-10-16T10:36:33.375Z,17.23
2023-10-16T10:39:22.120Z,15.73
2023-10-16T10:41:59.626Z,9.85
2023-10-16T10:44:38.003Z,17.10
2023-10-16T10:47:21.138Z,11.70
2023-10-16T10:49:50.325Z,18.48
2023-10-16T10:52:20.264Z,15.65
2023-10-16T10:54:56.157Z,13.52
2023-10-16T10:57:24.035Z,17.47
2023-10-16T10:59:51.436Z,12.05
2023-10-16T11:02:18.551Z,16.42
2023-10-16T11:04:53.443Z,18.55
2023-10-16T11:07:30.812Z,12.68
2023-10-16T11:09:58.782Z,17.33
2023-10-16T11:12:26.339Z,19.15
2023-10-16T11:14:56.498Z,12.98
2023-10-16T11:17:33.948Z,16.10
2023-10-16T11:20:02.082Z,16.00
2023-10-16T11:22:29.143Z,17.43
2023-10-16T11:24:56.890Z,12.05
2023-10-16T11:27:24.048Z,13.80
2023-10-16T11:29:51.245Z,17.08
2023-10-16T11:32:18.524Z,13.52
2023-10-16T11:34:47.240Z,11.37
2023-10-16T11:37:15.449Z,18.50
2023-10-16T11:39:43.850Z,10.82
2023-10-16T11:42:11.188Z,18.15
2023-10-16T11:44:38.445Z,17.65
2023-10-16T11:47:06.367Z,23.07
2023-10-16T11:49:35.694Z,17.63
2023-10-16T11:52:05.208Z,16.23
2023-10-16T11:54:32.458Z,15.93
2023-10-16T11:56:59.951Z,23.60
2023-10-16T11:59:28.276Z,14.47
2023-10-16T12:02:03.387Z,13.43
2023-10-16T12:04:32.977Z,9.95
2023-10-16T12:07:00.722Z,18.50
2023-10-16T12:09:27.841Z,13.73
2023-10-16T12:11:55.087Z,17.60
2023-10-16T12:14:22.180Z,13.98
2023-10-16T12:16:49.375Z,16.05
2023-10-16T12:19:18.141Z,19.80
2023-10-16T12:21:46.189Z,19.08
2023-10-16T12:24:13.288Z,17.93
2023-10-16T12:26:41.173Z,14.63
2023-10-16T12:29:08.785Z,22.80
2023-10-16T12:31:39.782Z,18.52
2023-10-16T12:34:07.234Z,19.83
2023-10-16T12:36:34.571Z,21.50
2023-10-16T12:39:01.695Z,14.30
2023-10-16T12:41:28.910Z,19.27
2023-10-16T12:43:55.974Z,16.55
2023-10-16T12:46:23.112Z,18.73
2023-10-16T12:48:50.436Z,17.00
2023-10-16T12:51:17.629Z,10.52
2023-10-16T12:53:44.682Z,17.13
2023-10-16T12:56:11.932Z,17.15
2023-10-16T12:58:38.996Z,19.05
2023-10-16T13:01:07.663Z,14.33
2023-10-16T13:03:35.494Z,20.73
2023-10-16T13:06:02.829Z,13.02
2023-10-16T13:08:29.928Z,19.05
2023-10-16T13:10:57.007Z,14.18
2023-10-16T13:13:24.094Z,17.27
2023-10-16T13:15:51.358Z,19.67
2023-10-16T13:18:22.745Z,23.23
2023-10-16T13:20:49.904Z,15.43
2023-10-16T13:23:21.457Z,24.38
2023-10-16T13:25:54.659Z,15.70
2023-10-16T13:28:21.690Z,22.35
2023-10-16T13:30:49.242Z,14.27
2023-10-16T13:33:16.609Z,17.65
2023-10-16T13:35:43.692Z,23.35
2023-10-16T13:38:11.109Z,17.47
2023-10-16T13:40:38.908Z,20.08
2023-10-16T13:43:06.278Z,15.80
2023-10-16T13:45:33.341Z,13.55
2023-10-16T13:48:00.482Z,17.63
2023-10-16T13:50:27.689Z,17.97
2023-10-16T13:52:55.296Z,10.85
2023-10-16T13:55:26.404Z,15.85
2023-10-16T13:57:53.557Z,16.15
2023-10-16T14:00:21.865Z,19.90
2023-10-16T14:02:49.017Z,20.67
2023-10-16T14:05:16.214Z,18.50
2023-10-16T14:07:43.311Z,17.17
2023-10-16T14:10:10.572Z,19.20
2023-10-16T14:12:37.683Z,11.15
2023-10-16T14:15:05.077Z,16.77
2023-10-16T14:17:32.220Z,18.33
2023-10-16T14:19:59.259Z,17.85
2023-10-16T14:22:26.331Z,13.48
2023-10-16T14:24:53.460Z,21.98
2023-10-16T14:27:20.574Z,21.60
2023-10-16T14:29:47.618Z,23.73
2023-10-16T14:32:14.995Z,11.85
2023-10-16T14:34:42.333Z,11.45
2023-10-16T14:37:09.434Z,19.38
2023-10-16T14:39:36.642Z,18.07
2023-10-16T14:42:03.914Z,22.67
2023-10-16T14:44:31.043Z,12.35
2023-10-16T14:46:58.573Z,16.35
2023-10-16T14:49:25.688Z,12.05
2023-10-16T14:51:53.223Z,14.07
2023-10-16T14:54:21.052Z,21.10
2023-10-16T14:56:48.172Z,8.82
2023-10-16T14:59:28.505Z,17.85
2023-10-16T15:01:56.543Z,15.23
2023-10-16T15:04:24.053Z,19.47
2023-10-16T15:06:51.547Z,12.07
2023-10-16T15:09:18.659Z,12.93
2023-10-16T15:11:46.800Z,13.55
2023-10-16T15:14:14.173Z,18.08
2023-10-16T15:16:41.445Z,23.57
2023-10-16T15:19:09.438Z,18.55
2023-10-16T15:21:37.379Z,15.02
2023-10-16T15:24:05.064Z,21.65
2023-10-16T15:26:32.860Z,17.83
2023-10-16T15:29:00.176Z,17.20
2023-10-16T15:31:27.923Z,23.83
2023-10-16T15:33:55.187Z,20.52
2023-10-16T15:36:22.570Z,10.00
2023-10-16T15:38:51.313Z,15.63
2023-10-16T15:41:18.434Z,19.13
2023-10-16T15:43:48.382Z,17.75
2023-10-16T15:46:27.202Z,19.20
2023-10-16T15:48:54.734Z,14.73
2023-10-16T15:51:22.323Z,17.75
2023-10-16T15:53:49.380Z,19.60
2023-10-16T15:56:16.517Z,21.23
2023-10-16T15:58:43.584Z,16.85
2023-10-16T16:01:10.939Z,15.23
2023-10-16T16:03:39.109Z,12.77
2023-10-16T16:06:18.669Z,17.00
2023-10-16T16:08:47.421Z,14.07
2023-10-16T16:11:14.681Z,14.88
2023-10-16T16:13:45.652Z,18.17
2023-10-16T16:16:14.043Z,12.00
2023-10-16T16:18:41.508Z,11.60
2023-10-16T16:21:08.745Z,14.90
2023-10-16T16:23:35.859Z,18.98
2023-10-16T16:26:03.390Z,18.13
2023-10-16T16:28:30.478Z,17.38
2023-10-16T16:30:57.596Z,4.77
2023-10-16T16:33:24.790Z,11.40
2023-10-16T16:35:52.040Z,13.68
2023-10-16T16:38:19.229Z,19.48
2023-10-16T16:40:46.838Z,18.40
2023-10-16T16:43:13.920Z,15.17
2023-10-16T16:45:41.800Z,15.77
2023-10-16T16:48:09.014Z,20.85
2023-10-16T16:50:36.256Z,12.70
2023-10-16T16:53:03.418Z,11.63
2023-10-16T16:55:30.488Z,13.77
2023-10-16T16:57:57.597Z,14.60
2023-10-16T17:00:24.777Z,25.10
2023-10-16T17:02:51.930Z,20.60
2023-10-16T17:05:19.015Z,26.23
2023-10-16T17:07:46.127Z,12.53
2023-10-16T17:10:14.267Z,14.98
2023-10-16T17:12:42.603Z,10.57
2023-10-16T17:15:11.601Z,20.83
2023-10-16T17:17:41.882Z,12.48
2023-10-16T17:20:13.480Z,15.37
2023-10-16T17:25:17.205Z,12.30
2023-10-16T17:27:44.431Z,11.35
2023-10-16T17:30:11.799Z,12.38
2023-10-16T17:32:38.959Z,14.13
2023-10-16T17:35:07.433Z,12.70
2023-10-16T17:37:34.563Z,11.15
2023-10-16T17:40:01.929Z,9.75
2023-10-16T17:42:29.638Z,17.55
2023-10-16T17:44:56.706Z,22.27
2023-10-16T17:47:23.841Z,17.85
2023-10-16T17:49:50.963Z,15.55
2023-10-16T17:52:18.035Z,16.10
2023-10-16T17:54:45.206Z,14.30
2023-10-16T17:57:12.295Z,19.97
2023-10-16T17:59:39.417Z,21.80
2023-10-16T18:02:06.903Z,14.70
2023-10-16T18:04:34.030Z,11.25
2023-10-16T18:07:01.408Z,20.90
2023-10-16T18:09:28.650Z,17.97
2023-10-16T18:11:56.650Z,15.82
2023-10-16T18:14:24.206Z,19.63
2023-10-16T18:16:52.028Z,25.48
2023-10-16T18:19:19.053Z,16.20
2023-10-16T18:21:46.315Z,34.30
2023-10-16T18:24:13.509Z,22.35
2023-10-16T18:26:40.662Z,19.48
2023-10-16T18:29:07.724Z,19.77
2023-10-16T18:31:34.864Z,17.13
2023-10-16T18:34:01.950Z,15.77
2023-10-16T18:36:29.039Z,15.27
2023-10-16T18:38:56.168Z,25.02
2023-10-16T18:41:23.270Z,12.57
2023-10-16T18:43:50.355Z,17.77
2023-10-16T18:46:17.876Z,16.87
2023-10-16T18:48:44.980Z,11.68
2023-10-16T18:51:12.310Z,11.63
2023-10-16T18:53:39.609Z,10.57
2023-10-16T18:56:06.653Z,13.82
2023-10-16T18:58:33.716Z,13.50
2023-10-16T19:01:07.094Z,9.43
2023-10-16T19:03:34.563Z,12.60
2023-10-16T19:06:03.338Z,13.73
2023-10-16T19:08:30.799Z,8.73
2023-10-16T19:11:01.556Z,19.97
2023-10-16T19:13:32.925Z,11.93
2023-10-16T19:16:00.985Z,11.43
2023-10-16T19:18:31.596Z,19.38
2023-10-16T19:21:01.130Z,15.40
2023-10-16T19:23:30.635Z,12.80
2023-10-16T19:26:05.726Z,8.10
2023-10-16T19:28:33.507Z,16.02
2023-10-16T19:31:04.189Z,13.63
2023-10-16T19:33:31.471Z,11.90
2023-10-16T19:35:58.620Z,10.80
2023-10-16T19:38:25.707Z,9.32
2023-10-16T19:41:02.184Z,17.17
2023-10-16T19:43:29.314Z,14.90
2023-10-16T19:45:56.399Z,27.20
2023-10-16T19:48:24.356Z,20.80
2023-10-16T19:50:51.497Z,10.98
2023-10-16T19:53:18.586Z,19.25
2023-10-16T19:55:47.955Z,18.70
2023-10-16T19:58:15.054Z,20.77
2023-10-16T20:00:42.168Z,19.43
2023-10-16T20:03:10.097Z,19.50
2023-10-16T20:05:40.515Z,22.20
2023-10-16T20:08:08.192Z,15.88
2023-10-16T20:10:35.495Z,13.48
2023-10-16T20:13:02.727Z,19.73
2023-10-16T20:15:30.240Z,16.30
2023-10-16T20:17:57.985Z,17.98
2023-10-16T20:20:25.278Z,12.45
2023-10-16T20:22:54.460Z,19.65
2023-10-16T20:25:21.942Z,16.43
2023-10-16T20:27:49.893Z,16.98
2023-10-16T20:30:17.609Z,25.55
2023-10-16T20:32:45.050Z,17.05
2023-10-16T20:35:12.177Z,32.80
2023-10-16T20:37:39.222Z,19.53
2023-10-16T20:40:06.979Z,20.45
2023-10-16T20:42:34.219Z,20.17
2023-10-16T20:45:01.316Z,18.13
2023-10-16T20:47:28.592Z,22.23
2023-10-16T20:49:56.065Z,21.50
2023-10-16T20:52:23.175Z,21.15
2023-10-16T20:54:50.315Z,21.17
2023-10-16T20:57:17.554Z,26.75
2023-10-16T20:59:44.673Z,21.80
2023-10-16T21:02:12.099Z,27.13
2023-10-16T21:04:39.438Z,23.20
2023-10-16T21:07:06.484Z,19.38
2023-10-16T21:09:33.565Z,20.40
2023-10-16T21:12:00.679Z,26.27
2023-10-16T21:14:27.953Z,23.70
2023-10-16T21:16:55.194Z,30.20
2023-10-16T21:19:22.249Z,24.27
2023-10-16T21:21:49.288Z,21.08
2023-10-16T21:24:16.469Z,22.88
2023-10-16T21:26:43.573Z,20.80
2023-10-16T21:29:10.646Z,21.30
2023-10-16T21:31:37.786Z,27.92
2023-10-16T21:34:04.936Z,23.20
2023-10-16T21:36:31.977Z,15.27
2023-10-16T21:38:59.389Z,30.47
2023-10-16T21:41:26.511Z,19.30
2023-10-16T21:43:53.574Z,23.05
2023-10-16T21:46:21.089Z,22.90
2023-10-16T21:48:48.241Z,20.20
2023-10-16T21:51:15.381Z,20.77
2023-10-16T21:53:42.520Z,23.63
2023-10-16T21:56:09.580Z,18.67
2023-10-16T21:58:36.730Z,22.23
2023-10-16T22:01:03.940Z,24.15
2023-10-16T22:03:31.163Z,34.80
2023-10-16T22:05:58.437Z,27.65
2023-10-16T22:08:25.506Z,24.33
2023-10-16T22:10:52.589Z,22.17
2023-10-16T22:13:19.637Z,30.95
2023-10-16T22:15:46.757Z,27.33
2023-10-16T22:18:13.979Z,21.77
2023-10-16T22:20:41.231Z,21.77
2023-10-16T22:23:08.296Z,23.85
2023-10-16T22:25:35.487Z,28.55
2023-10-16T22:28:03.413Z,20.93
2023-10-16T22:30:30.510Z,19.55
2023-10-16T22:32:57.776Z,20.10
2023-10-16T22:35:24.937Z,17.80
2023-10-16T22:37:52.656Z,19.73
2023-10-16T22:40:19.852Z,25.07
2023-10-16T22:42:47.062Z,22.58
2023-10-16T22:45:14.332Z,26.60
2023-10-16T22:47:41.599Z,20.30
2023-10-16T22:50:09.000Z,22.83
2023-10-16T22:52:36.346Z,23.03
2023-10-16T22:55:03.467Z,19.73
2023-10-16T22:57:30.612Z,20.98
2023-10-16T22:59:57.800Z,16.10
2023-10-16T23:02:25.048Z,18.98
2023-10-16T23:04:52.136Z,18.60
2023-10-16T23:07:19.195Z,15.52
2023-10-16T23:09:48.043Z,26.05
2023-10-16T23:12:15.274Z,17.42
2023-10-16T23:14:43.093Z,19.70
2023-10-16T23:17:10.686Z,11.90
2023-10-16T23:19:40.968Z,24.80
2023-10-16T23:22:08.077Z,18.10
2023-10-16T23:24:35.160Z,12.65
2023-10-16T23:27:02.818Z,23.95
2023-10-16T23:29:30.306Z,14.07
2023-10-16T23:31:57.368Z,16.55
2023-10-16T23:34:24.453Z,14.57
2023-10-16T23:36:52.729Z,12.43
2023-10-16T23:39:19.880Z,16.48
2023-10-16T23:41:47.042Z,19.67
2023-10-16T23:44:14.862Z,19.40
2023-10-16T23:46:46.548Z,17.20
2023-10-16T23:49:13.755Z,17.13
2023-10-16T23:51:40.898Z,17.30
2023-10-16T23:54:08.043Z,19.23
2023-10-16T23:56:35.141Z,21.98
2023-10-16T23:59:02.269Z,16.25
